CCA4462 ZUZH-ZUUU
Flight info
| Callsign | CCA4462 |
|---|---|
| Flight time | 0h 49m |
| Altitude | 29100 |
| Route | PAN H89 P334 W144 IGNAK |
| Aircraft | A359/M-SDE2E3GHIJ3J4J5LM1ORWXY/LB1D1 |
Departure
| Time | 2026-05-08 06:36 |
|---|---|
| Airport | Panzhihua Bao'anying Airport (ZUZH) |
Arrival
| Time | 2026-05-08 07:25 |
|---|---|
| Airport | Chengdu Shuangliu International Airport (ZUUU) |
| Time | Latitude | Longitude | Altitude | Speed | Heading |
|---|---|---|---|---|---|
| 2026-05-08 06:10 | 26.53857 | 101.79531 | 6483 ft | 0 kts | 291° |
| 2026-05-08 06:29 | 26.53851 | 101.79549 | 6467 ft | 4 kts | 283° |
| 2026-05-08 06:29 | 26.53850 | 101.79578 | 6478 ft | 4 kts | 253° |
| 2026-05-08 06:29 | 26.53863 | 101.79600 | 6482 ft | 4 kts | 207° |
| 2026-05-08 06:30 | 26.53869 | 101.79604 | 6483 ft | 0 kts | 201° |
| 2026-05-08 06:31 | 26.53865 | 101.79602 | 6482 ft | 2 kts | 201° |
| 2026-05-08 06:32 | 26.53844 | 101.79593 | 6483 ft | 5 kts | 201° |
| 2026-05-08 06:32 | 26.53802 | 101.79575 | 6483 ft | 8 kts | 201° |
| 2026-05-08 06:32 | 26.53739 | 101.79547 | 6480 ft | 11 kts | 201° |
| 2026-05-08 06:32 | 26.53671 | 101.79544 | 6482 ft | 10 kts | 132° |
| 2026-05-08 06:33 | 26.53646 | 101.79610 | 6481 ft | 10 kts | 111° |
| 2026-05-08 06:33 | 26.53603 | 101.79671 | 6477 ft | 10 kts | 171° |
| 2026-05-08 06:33 | 26.53530 | 101.79646 | 6468 ft | 12 kts | 201° |
| 2026-05-08 06:33 | 26.53452 | 101.79612 | 6480 ft | 12 kts | 201° |
| 2026-05-08 06:34 | 26.53378 | 101.79581 | 6464 ft | 11 kts | 201° |
| 2026-05-08 06:34 | 26.53308 | 101.79550 | 6466 ft | 10 kts | 201° |
| 2026-05-08 06:34 | 26.53239 | 101.79520 | 6472 ft | 11 kts | 201° |
| 2026-05-08 06:34 | 26.53163 | 101.79487 | 6483 ft | 12 kts | 201° |
| 2026-05-08 06:35 | 26.53081 | 101.79452 | 6488 ft | 13 kts | 201° |
| 2026-05-08 06:35 | 26.52993 | 101.79413 | 6490 ft | 15 kts | 201° |
| 2026-05-08 06:35 | 26.52899 | 101.79363 | 6493 ft | 15 kts | 225° |
| 2026-05-08 06:35 | 26.52840 | 101.79333 | 6494 ft | 8 kts | 110° |
| 2026-05-08 06:36 | 26.52873 | 101.79361 | 6493 ft | 7 kts | 20° |
| 2026-05-08 06:36 | 26.52951 | 101.79395 | 6491 ft | 25 kts | 21° |
| 2026-05-08 06:36 | 26.53364 | 101.79575 | 6466 ft | 99 kts | 21° |
| 2026-05-08 06:36 | 26.54194 | 101.79934 | 6493 ft | 155 kts | 21° |
| 2026-05-08 06:37 | 26.55274 | 101.80406 | 6896 ft | 169 kts | 21° |
| 2026-05-08 06:37 | 26.56309 | 101.80972 | 7507 ft | 171 kts | 45° |
| 2026-05-08 06:37 | 26.56864 | 101.82169 | 7944 ft | 182 kts | 84° |
| 2026-05-08 06:37 | 26.56820 | 101.83661 | 8135 ft | 204 kts | 94° |
| 2026-05-08 06:38 | 26.56714 | 101.85339 | 8325 ft | 228 kts | 94° |
| 2026-05-08 06:38 | 26.56592 | 101.87183 | 8555 ft | 247 kts | 95° |
| 2026-05-08 06:38 | 26.56459 | 101.89162 | 8975 ft | 263 kts | 95° |
| 2026-05-08 06:38 | 26.56329 | 101.91234 | 9752 ft | 269 kts | 94° |
| 2026-05-08 06:39 | 26.56206 | 101.93329 | 10546 ft | 272 kts | 95° |
| 2026-05-08 06:39 | 26.56080 | 101.95449 | 11338 ft | 275 kts | 95° |
| 2026-05-08 06:39 | 26.55951 | 101.97574 | 12092 ft | 280 kts | 96° |
| 2026-05-08 06:39 | 26.55815 | 101.99774 | 12807 ft | 287 kts | 96° |
| 2026-05-08 06:40 | 26.55708 | 102.02033 | 13418 ft | 297 kts | 89° |
| 2026-05-08 06:40 | 26.55918 | 102.04406 | 13750 ft | 320 kts | 83° |
| 2026-05-08 06:40 | 26.56251 | 102.06963 | 14005 ft | 344 kts | 82° |
| 2026-05-08 06:40 | 26.56653 | 102.09686 | 14209 ft | 367 kts | 81° |
| 2026-05-08 06:41 | 26.57095 | 102.12588 | 14345 ft | 389 kts | 81° |
| 2026-05-08 06:41 | 26.57554 | 102.15640 | 14516 ft | 407 kts | 81° |
| 2026-05-08 06:41 | 26.58013 | 102.18801 | 15003 ft | 415 kts | 81° |
| 2026-05-08 06:41 | 26.58024 | 102.18874 | 15013 ft | 415 kts | 81° |
| 2026-05-08 06:42 | 26.58238 | 102.20305 | 15244 ft | 418 kts | 81° |
| 2026-05-08 06:43 | 26.58710 | 102.23558 | 15779 ft | 423 kts | 82° |
| 2026-05-08 06:43 | 26.59160 | 102.26835 | 16296 ft | 430 kts | 82° |
| 2026-05-08 06:43 | 26.59602 | 102.30145 | 16819 ft | 434 kts | 82° |
| 2026-05-08 06:43 | 26.60048 | 102.33509 | 17336 ft | 440 kts | 82° |
| 2026-05-08 06:44 | 26.60504 | 102.36910 | 17795 ft | 446 kts | 82° |
| 2026-05-08 06:44 | 26.60971 | 102.40348 | 18245 ft | 451 kts | 82° |
| 2026-05-08 06:44 | 26.61448 | 102.43826 | 18748 ft | 456 kts | 82° |
| 2026-05-08 06:44 | 26.61934 | 102.47352 | 19193 ft | 460 kts | 81° |
| 2026-05-08 06:45 | 26.62422 | 102.50882 | 19592 ft | 465 kts | 81° |
| 2026-05-08 06:45 | 26.62916 | 102.54464 | 20049 ft | 469 kts | 82° |
| 2026-05-08 06:45 | 26.63413 | 102.58097 | 20482 ft | 473 kts | 81° |
| 2026-05-08 06:45 | 26.63908 | 102.61746 | 20876 ft | 477 kts | 82° |
| 2026-05-08 06:46 | 26.64402 | 102.65432 | 21290 ft | 481 kts | 81° |
| 2026-05-08 06:46 | 26.64898 | 102.69143 | 21682 ft | 485 kts | 82° |
| 2026-05-08 06:46 | 26.65396 | 102.72885 | 22046 ft | 489 kts | 81° |
| 2026-05-08 06:46 | 26.65899 | 102.76663 | 22362 ft | 493 kts | 81° |
| 2026-05-08 06:47 | 26.66406 | 102.80465 | 22720 ft | 496 kts | 81° |
| 2026-05-08 06:47 | 26.66919 | 102.84299 | 23047 ft | 500 kts | 81° |
| 2026-05-08 06:47 | 26.67437 | 102.88149 | 23433 ft | 503 kts | 81° |
| 2026-05-08 06:47 | 26.67957 | 102.92023 | 23758 ft | 506 kts | 81° |
| 2026-05-08 06:48 | 26.68478 | 102.95924 | 24031 ft | 508 kts | 81° |
| 2026-05-08 06:48 | 26.68998 | 102.99846 | 24256 ft | 511 kts | 81° |
| 2026-05-08 06:48 | 26.69517 | 103.03785 | 24565 ft | 514 kts | 81° |
| 2026-05-08 06:48 | 26.70036 | 103.07751 | 24914 ft | 514 kts | 82° |
| 2026-05-08 06:49 | 26.70555 | 103.11712 | 25216 ft | 517 kts | 81° |
| 2026-05-08 06:49 | 26.71083 | 103.15699 | 25504 ft | 520 kts | 81° |
| 2026-05-08 06:49 | 26.71607 | 103.19659 | 25769 ft | 522 kts | 82° |
| 2026-05-08 06:49 | 26.72136 | 103.23684 | 26037 ft | 524 kts | 82° |
| 2026-05-08 06:50 | 26.72664 | 103.27730 | 26295 ft | 527 kts | 82° |
| 2026-05-08 06:50 | 26.73244 | 103.31785 | 26563 ft | 529 kts | 77° |
| 2026-05-08 06:50 | 26.74304 | 103.35730 | 26815 ft | 530 kts | 66° |
| 2026-05-08 06:50 | 26.75931 | 103.39421 | 27042 ft | 529 kts | 56° |
| 2026-05-08 06:51 | 26.78064 | 103.42746 | 27275 ft | 525 kts | 45° |
| 2026-05-08 06:51 | 26.80613 | 103.45615 | 27501 ft | 521 kts | 35° |
| 2026-05-08 06:51 | 26.83529 | 103.47994 | 27737 ft | 516 kts | 25° |
| 2026-05-08 06:51 | 26.86680 | 103.49864 | 27980 ft | 512 kts | 19° |
| 2026-05-08 06:52 | 26.89877 | 103.51644 | 28219 ft | 514 kts | 20° |
| 2026-05-08 06:52 | 26.93086 | 103.53432 | 28419 ft | 516 kts | 20° |
| 2026-05-08 06:52 | 26.96310 | 103.55235 | 28616 ft | 518 kts | 20° |
| 2026-05-08 06:52 | 26.99520 | 103.57034 | 28797 ft | 521 kts | 20° |
| 2026-05-08 06:53 | 27.02761 | 103.58852 | 29097 ft | 520 kts | 20° |
| 2026-05-08 06:53 | 27.05995 | 103.60668 | 29331 ft | 520 kts | 20° |
| 2026-05-08 06:53 | 27.12408 | 103.64283 | 29364 ft | 514 kts | 20° |
| 2026-05-08 06:54 | 27.18817 | 103.67883 | 29365 ft | 515 kts | 20° |
| 2026-05-08 06:54 | 27.25171 | 103.71456 | 29364 ft | 514 kts | 20° |
| 2026-05-08 06:55 | 27.31574 | 103.75059 | 29357 ft | 514 kts | 20° |
| 2026-05-08 06:55 | 27.38004 | 103.78552 | 29357 ft | 512 kts | 18° |
| 2026-05-08 06:56 | 27.44492 | 103.81840 | 29363 ft | 511 kts | 17° |
| 2026-05-08 06:56 | 27.50984 | 103.85119 | 29363 ft | 512 kts | 17° |
| 2026-05-08 06:57 | 27.57446 | 103.88491 | 29357 ft | 511 kts | 18° |
| 2026-05-08 06:57 | 27.63875 | 103.91903 | 29362 ft | 512 kts | 18° |
| 2026-05-08 06:58 | 27.70307 | 103.95303 | 29334 ft | 506 kts | 18° |
| 2026-05-08 06:58 | 27.76710 | 103.98662 | 29349 ft | 509 kts | 18° |
| 2026-05-08 06:59 | 27.83129 | 104.02028 | 29342 ft | 509 kts | 18° |
| 2026-05-08 06:59 | 27.89556 | 104.05411 | 29328 ft | 510 kts | 18° |
| 2026-05-08 07:00 | 27.95988 | 104.08802 | 29329 ft | 510 kts | 18° |
| 2026-05-08 07:00 | 28.02419 | 104.12207 | 29315 ft | 510 kts | 17° |
| 2026-05-08 07:01 | 28.08788 | 104.15587 | 29332 ft | 508 kts | 18° |
| 2026-05-08 07:01 | 28.15228 | 104.19006 | 29321 ft | 507 kts | 18° |
| 2026-05-08 07:02 | 28.21578 | 104.22383 | 29312 ft | 507 kts | 18° |
| 2026-05-08 07:02 | 28.27973 | 104.25783 | 29308 ft | 508 kts | 18° |
| 2026-05-08 07:03 | 28.34410 | 104.29103 | 29307 ft | 504 kts | 12° |
| 2026-05-08 07:03 | 28.37732 | 104.30206 | 29304 ft | 493 kts | 4° |
| 2026-05-08 07:03 | 28.41093 | 104.30736 | 29301 ft | 483 kts | 355° |
| 2026-05-08 07:04 | 28.47726 | 104.30553 | 29298 ft | 475 kts | 348° |
| 2026-05-08 07:04 | 28.54339 | 104.30187 | 29295 ft | 476 kts | 349° |
| 2026-05-08 07:05 | 28.60947 | 104.29827 | 29295 ft | 476 kts | 349° |
| 2026-05-08 07:05 | 28.67560 | 104.29467 | 29294 ft | 476 kts | 349° |
| 2026-05-08 07:06 | 28.74184 | 104.29097 | 29292 ft | 477 kts | 349° |
| 2026-05-08 07:06 | 28.80818 | 104.28727 | 29193 ft | 478 kts | 349° |
| 2026-05-08 07:07 | 28.84140 | 104.28548 | 28945 ft | 478 kts | 349° |
| 2026-05-08 07:07 | 28.87464 | 104.28371 | 28697 ft | 478 kts | 349° |
| 2026-05-08 07:07 | 28.90786 | 104.28195 | 28444 ft | 478 kts | 349° |
| 2026-05-08 07:07 | 28.94104 | 104.28018 | 28191 ft | 478 kts | 349° |
| 2026-05-08 07:08 | 28.97427 | 104.27836 | 27943 ft | 478 kts | 349° |
| 2026-05-08 07:08 | 29.00757 | 104.27651 | 27690 ft | 479 kts | 350° |
| 2026-05-08 07:08 | 29.04079 | 104.27464 | 27439 ft | 479 kts | 350° |
| 2026-05-08 07:08 | 29.07415 | 104.27275 | 27190 ft | 480 kts | 350° |
| 2026-05-08 07:09 | 29.10756 | 104.27087 | 26939 ft | 480 kts | 351° |
| 2026-05-08 07:09 | 29.14097 | 104.26901 | 26679 ft | 482 kts | 351° |
| 2026-05-08 07:09 | 29.17444 | 104.26718 | 26439 ft | 483 kts | 351° |
| 2026-05-08 07:09 | 29.20803 | 104.26535 | 26190 ft | 483 kts | 351° |
| 2026-05-08 07:10 | 29.24164 | 104.26351 | 25940 ft | 484 kts | 351° |
| 2026-05-08 07:10 | 29.27499 | 104.25986 | 25684 ft | 478 kts | 344° |
| 2026-05-08 07:10 | 29.30712 | 104.25112 | 25438 ft | 475 kts | 339° |
| 2026-05-08 07:10 | 29.33908 | 104.24120 | 25184 ft | 476 kts | 339° |
| 2026-05-08 07:11 | 29.37105 | 104.23128 | 24935 ft | 477 kts | 340° |
| 2026-05-08 07:11 | 29.40306 | 104.22134 | 24684 ft | 477 kts | 340° |
| 2026-05-08 07:11 | 29.43515 | 104.21141 | 24432 ft | 478 kts | 340° |
| 2026-05-08 07:11 | 29.46729 | 104.20149 | 24182 ft | 480 kts | 340° |
| 2026-05-08 07:12 | 29.49958 | 104.19154 | 23929 ft | 480 kts | 340° |
| 2026-05-08 07:12 | 29.53189 | 104.18159 | 23498 ft | 480 kts | 340° |
| 2026-05-08 07:12 | 29.56411 | 104.17166 | 22265 ft | 480 kts | 341° |
| 2026-05-08 07:12 | 29.59619 | 104.16177 | 21423 ft | 471 kts | 341° |
| 2026-05-08 07:13 | 29.61701 | 104.15535 | 20691 ft | 470 kts | 341° |
| 2026-05-08 07:13 | 29.65876 | 104.14245 | 19657 ft | 458 kts | 341° |
| 2026-05-08 07:13 | 29.67905 | 104.13614 | 19068 ft | 454 kts | 341° |
| 2026-05-08 07:13 | 29.71942 | 104.12355 | 17857 ft | 442 kts | 341° |
| 2026-05-08 07:14 | 29.74876 | 104.11443 | 16721 ft | 432 kts | 342° |
| 2026-05-08 07:14 | 29.77719 | 104.10564 | 15972 ft | 414 kts | 342° |
| 2026-05-08 07:14 | 29.80425 | 104.09726 | 15242 ft | 402 kts | 342° |
| 2026-05-08 07:14 | 29.82233 | 104.09162 | 14767 ft | 398 kts | 342° |
| 2026-05-08 07:15 | 29.84884 | 104.08330 | 14064 ft | 397 kts | 342° |
| 2026-05-08 07:15 | 29.87548 | 104.07493 | 13385 ft | 396 kts | 343° |
| 2026-05-08 07:15 | 29.90184 | 104.06668 | 12709 ft | 393 kts | 343° |
| 2026-05-08 07:15 | 29.92809 | 104.05847 | 12024 ft | 390 kts | 343° |
| 2026-05-08 07:16 | 29.96211 | 104.04789 | 11466 ft | 375 kts | 344° |
| 2026-05-08 07:16 | 29.98684 | 104.04017 | 11346 ft | 357 kts | 344° |
| 2026-05-08 07:16 | 30.00279 | 104.03516 | 11258 ft | 346 kts | 344° |
| 2026-05-08 07:16 | 30.02549 | 104.02802 | 11136 ft | 331 kts | 344° |
| 2026-05-08 07:17 | 30.04722 | 104.02120 | 11012 ft | 317 kts | 344° |
| 2026-05-08 07:17 | 30.06781 | 104.01480 | 10906 ft | 304 kts | 344° |
| 2026-05-08 07:17 | 30.08780 | 104.00856 | 10704 ft | 296 kts | 344° |
| 2026-05-08 07:17 | 30.10745 | 104.00238 | 10464 ft | 289 kts | 345° |
| 2026-05-08 07:18 | 30.12673 | 103.99630 | 10350 ft | 287 kts | 345° |
| 2026-05-08 07:18 | 30.14604 | 103.99023 | 10232 ft | 286 kts | 345° |
| 2026-05-08 07:18 | 30.16519 | 103.98422 | 10098 ft | 285 kts | 345° |
| 2026-05-08 07:18 | 30.18434 | 103.97819 | 9929 ft | 285 kts | 345° |
| 2026-05-08 07:19 | 30.20368 | 103.97211 | 9200 ft | 296 kts | 345° |
| 2026-05-08 07:19 | 30.22384 | 103.96578 | 8464 ft | 304 kts | 346° |
| 2026-05-08 07:19 | 30.24402 | 103.95944 | 8187 ft | 295 kts | 346° |
| 2026-05-08 07:19 | 30.26324 | 103.95263 | 8047 ft | 284 kts | 337° |
| 2026-05-08 07:20 | 30.27894 | 103.93959 | 7912 ft | 276 kts | 315° |
| 2026-05-08 07:20 | 30.28904 | 103.92067 | 7453 ft | 280 kts | 294° |
| 2026-05-08 07:20 | 30.29624 | 103.89969 | 7029 ft | 280 kts | 294° |
| 2026-05-08 07:20 | 30.30344 | 103.87882 | 6612 ft | 279 kts | 294° |
| 2026-05-08 07:21 | 30.31231 | 103.85923 | 6194 ft | 273 kts | 314° |
| 2026-05-08 07:21 | 30.32793 | 103.84813 | 5805 ft | 260 kts | 350° |
| 2026-05-08 07:21 | 30.34519 | 103.84916 | 5469 ft | 243 kts | 17° |
| 2026-05-08 07:21 | 30.36052 | 103.85610 | 5143 ft | 231 kts | 26° |
| 2026-05-08 07:22 | 30.37467 | 103.86428 | 4818 ft | 222 kts | 27° |
| 2026-05-08 07:22 | 30.38824 | 103.87218 | 4506 ft | 214 kts | 27° |
| 2026-05-08 07:22 | 30.40148 | 103.87950 | 4202 ft | 208 kts | 26° |
| 2026-05-08 07:22 | 30.41450 | 103.88634 | 3901 ft | 202 kts | 25° |
| 2026-05-08 07:23 | 30.42684 | 103.89254 | 3898 ft | 185 kts | 24° |
| 2026-05-08 07:23 | 30.43790 | 103.89795 | 3901 ft | 165 kts | 24° |
| 2026-05-08 07:23 | 30.44877 | 103.90324 | 3833 ft | 171 kts | 24° |
| 2026-05-08 07:23 | 30.45979 | 103.90870 | 3373 ft | 174 kts | 25° |
| 2026-05-08 07:24 | 30.47095 | 103.91410 | 2917 ft | 176 kts | 22° |
| 2026-05-08 07:24 | 30.48233 | 103.91945 | 2511 ft | 179 kts | 21° |
| 2026-05-08 07:24 | 30.49353 | 103.92446 | 2269 ft | 168 kts | 21° |
| 2026-05-08 07:24 | 30.50373 | 103.92914 | 2073 ft | 148 kts | 22° |
| 2026-05-08 07:25 | 30.51294 | 103.93350 | 1836 ft | 138 kts | 22° |
| 2026-05-08 07:25 | 30.52164 | 103.93759 | 1668 ft | 134 kts | 22° |
| 2026-05-08 07:25 | 30.53344 | 103.94323 | 1646 ft | 48 kts | 22° |
| 2026-05-08 07:26 | 30.53509 | 103.94361 | 1646 ft | 19 kts | 360° |
| 2026-05-08 07:26 | 30.53637 | 103.94344 | 1646 ft | 19 kts | 352° |
| 2026-05-08 07:26 | 30.53771 | 103.94330 | 1646 ft | 19 kts | 353° |
| 2026-05-08 07:26 | 30.53902 | 103.94352 | 1646 ft | 20 kts | 21° |
| 2026-05-08 07:27 | 30.54016 | 103.94372 | 1646 ft | 12 kts | 300° |
| 2026-05-08 07:27 | 30.54075 | 103.94324 | 1646 ft | 11 kts | 16° |
| 2026-05-08 07:27 | 30.54155 | 103.94359 | 1646 ft | 14 kts | 22° |
| 2026-05-08 07:27 | 30.54252 | 103.94405 | 1646 ft | 16 kts | 22° |
| 2026-05-08 07:28 | 30.54366 | 103.94459 | 1646 ft | 19 kts | 22° |
| 2026-05-08 07:28 | 30.54496 | 103.94521 | 1646 ft | 22 kts | 22° |
| 2026-05-08 07:28 | 30.54644 | 103.94589 | 1646 ft | 24 kts | 22° |
| 2026-05-08 07:28 | 30.54797 | 103.94663 | 1646 ft | 24 kts | 22° |
| 2026-05-08 07:29 | 30.54954 | 103.94736 | 1646 ft | 24 kts | 22° |
| 2026-05-08 07:29 | 30.55113 | 103.94809 | 1646 ft | 25 kts | 20° |
| 2026-05-08 07:29 | 30.55273 | 103.94880 | 1647 ft | 25 kts | 22° |
| 2026-05-08 07:29 | 30.55434 | 103.94956 | 1647 ft | 25 kts | 22° |
| 2026-05-08 07:30 | 30.55596 | 103.95033 | 1647 ft | 25 kts | 22° |
| 2026-05-08 07:30 | 30.55759 | 103.95109 | 1647 ft | 26 kts | 22° |
| 2026-05-08 07:30 | 30.55931 | 103.95183 | 1646 ft | 26 kts | 20° |
| 2026-05-08 07:30 | 30.56104 | 103.95258 | 1646 ft | 27 kts | 20° |
| 2026-05-08 07:31 | 30.56264 | 103.95329 | 1646 ft | 22 kts | 21° |
| 2026-05-08 07:31 | 30.56406 | 103.95395 | 1646 ft | 22 kts | 21° |
| 2026-05-08 07:31 | 30.56532 | 103.95449 | 1646 ft | 11 kts | 356° |
| 2026-05-08 07:31 | 30.56571 | 103.95377 | 1646 ft | 11 kts | 291° |
| 2026-05-08 07:32 | 30.56595 | 103.95296 | 1646 ft | 6 kts | 266° |
| 2026-05-08 07:32 | 30.56570 | 103.95273 | 1646 ft | 5 kts | 199° |
| 2026-05-08 07:32 | 30.56534 | 103.95257 | 1646 ft | 6 kts | 202° |
| 2026-05-08 07:32 | 30.56524 | 103.95252 | 1646 ft | 1 kts | 202° |
| 2026-05-08 07:33 | 30.56520 | 103.95250 | 1646 ft | 0 kts | 202° |